Terminal Aerodrome Forecast
Issued by NWS Milwaukee/Sullivan, WI

Home | Current Version | Previous Version | Text Only | Print | Product List | Glossary On
Versions: 1 2 3 4 5 6 7 8 9 10 11 12 13 14 15 16 17 18 19 20 21 22 23 24 25 26
000
FTUS43 KMKX 210300 AAA
TAFMSN
TAF AMD
KMSN 210300Z 2103/2124 VRB04KT P6SM VCSH SCT040 BKN070
     FM210400 VRB04KT P6SM BKN070
     FM211000 19003KT 4SM -RA BR OVC050
     FM211500 25007KT 6SM -SHRA BR BKN025
     FM212000 31008KT 6SM -RA OVC030
     FM212300 33008KT P6SM BKN040=

USA.gov is the U.S. government's official web portal to all federal, state and local government web resources and services.